Time;durP1;ratioP1;P1;durP2;ratioP2;P2;SDS_P1;SDS_P2;PMS_P1;PMS_P2;Temp;Humidity;BMP_temperature;BMP_pressure;BME280_temperature;BME280_humidity;BME280_pressure;Samples;Min_cycle;Max_cycle;Signal;HPM_P1;HPM_P2
2022/11/19 00:01:16;;;;;;;18.53;10.20;;;6.70;99.90;;;;;;5035402;28;20272;-58
2022/11/19 00:03:43;;;;;;;15.53;9.63;;;6.70;99.90;;;;;;5037016;28;20208;-59
2022/11/19 00:06:22;;;;;;;15.07;8.43;;;6.70;99.90;;;;;;5050861;28;20194;-57
2022/11/19 00:08:49;;;;;;;18.17;9.53;;;6.70;99.90;;;;;;5035353;28;20207;-58
2022/11/19 00:14:09;;;;;;;18.07;9.10;;;6.60;99.90;;;;;;5039510;28;20209;-57
2022/11/19 00:16:35;;;;;;;14.00;8.83;;;6.70;99.90;;;;;;5040244;28;20201;-58
2022/11/19 00:19:03;;;;;;;17.07;9.50;;;6.60;99.90;;;;;;5040752;28;20273;-58
2022/11/19 00:21:30;;;;;;;17.00;8.87;;;6.50;99.90;;;;;;5037151;28;20645;-57
2022/11/19 00:23:57;;;;;;;14.07;9.30;;;6.40;99.90;;;;;;5022214;28;20207;-58
2022/11/19 00:26:24;;;;;;;13.47;9.10;;;6.40;99.90;;;;;;5041755;28;20710;-60
2022/11/19 00:28:51;;;;;;;13.03;9.00;;;6.60;99.90;;;;;;5036193;28;20195;-58
2022/11/19 00:31:17;;;;;;;13.20;8.87;;;6.60;99.90;;;;;;5027114;28;20220;-56
2022/11/19 00:33:45;;;;;;;15.63;9.40;;;6.60;99.90;;;;;;5036806;28;20201;-55
2022/11/19 00:36:13;;;;;;;13.70;9.20;;;6.50;99.90;;;;;;5041043;28;20230;-56
2022/11/19 00:38:41;;;;;;;12.17;8.57;;;6.40;99.90;;;;;;5036526;28;20224;-57
2022/11/19 00:41:08;;;;;;;15.53;9.57;;;6.40;99.90;;;;;;5036920;28;20250;-56
2022/11/19 00:43:47;;;;;;;15.03;8.50;;;6.30;99.90;;;;;;5039391;28;20499;-56
2022/11/19 00:46:16;;;;;;;13.40;9.07;;;6.40;99.90;;;;;;5023428;28;20227;-56
2022/11/19 00:48:43;;;;;;;14.13;9.27;;;6.40;99.90;;;;;;5022310;28;20200;-57
2022/11/19 00:51:11;;;;;;;15.57;9.13;;;6.40;99.90;;;;;;5051486;28;20278;-57
2022/11/19 00:53:38;;;;;;;13.20;8.97;;;6.40;99.90;;;;;;5038162;28;20232;-56
2022/11/19 00:56:08;;;;;;;14.40;9.77;;;6.20;99.90;;;;;;5041568;28;20193;-56
2022/11/19 00:58:35;;;;;;;14.63;9.53;;;6.20;99.90;;;;;;5041253;28;20200;-56
2022/11/19 01:01:03;;;;;;;15.30;9.30;;;6.20;99.90;;;;;;5038639;28;20322;-58
2022/11/19 01:03:30;;;;;;;14.47;9.70;;;6.10;99.90;;;;;;5039451;28;20535;-56
2022/11/19 01:05:57;;;;;;;13.70;8.93;;;6.20;99.90;;;;;;5040292;28;20267;-57
2022/11/19 01:08:25;;;;;;;14.63;9.17;;;6.10;99.90;;;;;;5037833;28;20260;-57
2022/11/19 01:10:52;;;;;;;17.43;9.43;;;6.00;99.90;;;;;;5040350;28;20258;-56
2022/11/19 01:13:33;;;;;;;14.20;9.57;;;6.00;99.90;;;;;;5036875;28;20880;-56
2022/11/19 01:16:08;;;;;;;17.37;9.30;;;6.00;99.90;;;;;;5051857;28;20208;-56
2022/11/19 01:18:36;;;;;;;14.23;9.07;;;5.90;99.90;;;;;;5024115;28;20317;-57
2022/11/19 01:21:05;;;;;;;16.83;10.40;;;5.90;99.90;;;;;;5040192;28;20284;-65
2022/11/19 01:23:32;;;;;;;15.70;10.23;;;5.90;99.90;;;;;;5020082;28;20204;-58
2022/11/19 01:26:00;;;;;;;14.53;10.13;;;5.90;99.90;;;;;;5039222;28;20253;-56
2022/11/19 01:28:27;;;;;;;13.53;8.47;;;6.00;99.90;;;;;;5052892;28;20606;-58
2022/11/19 01:30:54;;;;;;;15.47;8.93;;;6.00;99.90;;;;;;5039885;28;20219;-56
2022/11/19 01:33:21;;;;;;;16.20;9.70;;;6.00;99.90;;;;;;5037693;28;20199;-57
2022/11/19 01:36:03;;;;;;;15.77;10.23;;;6.00;99.90;;;;;;5040094;28;20198;-56
2022/11/19 01:38:30;;;;;;;15.70;9.40;;;6.00;99.90;;;;;;5039828;28;20208;-56
2022/11/19 01:40:58;;;;;;;14.90;9.23;;;6.00;99.90;;;;;;5041094;28;20250;-56
2022/11/19 01:43:41;;;;;;;14.63;10.10;;;6.00;99.90;;;;;;5038887;28;20206;-56
2022/11/19 01:46:09;;;;;;;19.63;10.77;;;5.90;99.90;;;;;;5040790;28;20652;-56
2022/11/19 01:48:43;;;;;;;18.13;11.40;;;5.90;99.90;;;;;;5040501;28;20415;-57
2022/11/19 01:51:20;;;;;;;18.23;10.63;;;5.90;99.90;;;;;;5041657;28;20212;-57
2022/11/19 01:53:49;;;;;;;16.50;10.80;;;5.80;99.90;;;;;;5039555;28;20242;-57
2022/11/19 01:56:19;;;;;;;19.90;10.90;;;5.90;99.90;;;;;;5042094;28;20214;-57
2022/11/19 01:58:51;;;;;;;21.20;12.37;;;6.10;99.90;;;;;;5039220;28;20207;-57
2022/11/19 02:01:18;;;;;;;16.20;9.87;;;5.90;99.90;;;;;;5039133;28;20247;-56
2022/11/19 02:03:47;;;;;;;14.63;9.40;;;5.80;99.90;;;;;;5041501;28;20208;-56
2022/11/19 02:06:14;;;;;;;14.00;8.47;;;5.70;99.90;;;;;;5039377;28;20211;-56
2022/11/19 02:08:46;;;;;;;14.93;9.30;;;5.60;99.90;;;;;;5036626;28;20195;-56
2022/11/19 02:11:31;;;;;;;15.37;8.87;;;5.70;99.90;;;;;;5039519;28;20738;-56
2022/11/19 02:14:23;;;;;;;14.53;9.20;;;5.60;99.90;;;;;;5039751;28;20614;-57
2022/11/19 02:17:12;;;;;;;14.40;8.53;;;5.70;99.90;;;;;;5036596;28;20235;-56
2022/11/19 02:19:52;;;;;;;14.57;9.13;;;5.60;99.90;;;;;;5054893;28;20223;-59
2022/11/19 02:22:44;;;;;;;14.10;8.93;;;5.60;99.90;;;;;;5038611;28;21256;-56
2022/11/19 02:25:22;;;;;;;13.40;9.03;;;5.60;99.90;;;;;;5038985;28;20378;-57
2022/11/19 02:27:55;;;;;;;14.73;8.47;;;5.60;99.90;;;;;;5034259;28;20971;-57
2022/11/19 02:30:22;;;;;;;13.73;8.47;;;5.70;99.90;;;;;;5036773;28;20202;-57
2022/11/19 02:33:09;;;;;;;14.37;9.27;;;5.60;99.90;;;;;;5036233;28;20238;-56
2022/11/19 02:35:58;;;;;;;14.87;8.70;;;5.70;99.90;;;;;;5039286;28;20207;-57
2022/11/19 02:38:41;;;;;;;12.60;9.40;;;5.60;99.90;;;;;;5038960;28;20204;-57
2022/11/19 02:41:56;;;;;;;15.93;9.90;;;5.50;99.90;;;;;;5038824;28;20566;-57
2022/11/19 02:47:07;;;;;;;14.73;10.10;;;5.40;99.90;;;;;;5040219;28;20203;-57
2022/11/19 02:49:38;;;;;;;13.67;9.97;;;5.40;99.90;;;;;;5038762;28;20671;-57
2022/11/19 02:52:06;;;;;;;14.30;10.17;;;5.30;99.90;;;;;;5039204;28;20688;-57
2022/11/19 02:54:32;;;;;;;14.20;9.77;;;5.40;99.90;;;;;;5039041;28;20295;-56
2022/11/19 02:56:59;;;;;;;15.57;9.63;;;5.40;99.90;;;;;;5039624;28;20624;-57
2022/11/19 03:05:11;;;;;;;14.60;9.30;;;5.10;99.90;;;;;;5040765;28;20208;-57
2022/11/19 03:07:38;;;;;;;15.53;9.63;;;5.10;99.90;;;;;;5035707;28;20207;-57
2022/11/19 03:10:08;;;;;;;17.30;9.73;;;5.10;99.90;;;;;;5036947;28;20764;-59
2022/11/19 03:12:53;;;;;;;13.27;9.53;;;5.00;99.90;;;;;;5038789;28;20237;-57
2022/11/19 03:18:36;;;;;;;14.20;9.17;;;5.00;99.90;;;;;;5038449;28;20300;-57
2022/11/19 03:21:11;;;;;;;18.43;10.60;;;5.10;99.90;;;;;;5039411;28;20211;-57
2022/11/19 03:23:53;;;;;;;16.33;10.87;;;5.00;99.90;;;;;;5037113;28;21036;-56
2022/11/19 03:26:34;;;;;;;20.23;11.77;;;4.90;99.90;;;;;;5037538;28;20286;-56
2022/11/19 03:29:07;;;;;;;15.10;10.03;;;4.80;99.90;;;;;;5037724;28;20566;-56
2022/11/19 03:31:39;;;;;;;15.73;10.20;;;4.80;99.90;;;;;;5034284;28;20657;-59
2022/11/19 03:34:14;;;;;;;17.33;10.83;;;4.80;99.90;;;;;;5055068;28;20212;-56
2022/11/19 03:36:44;;;;;;;17.33;9.97;;;4.90;99.90;;;;;;5039533;28;20208;-57
2022/11/19 03:39:15;;;;;;;20.27;11.67;;;4.90;99.90;;;;;;5036918;28;20210;-58
2022/11/19 03:41:45;;;;;;;16.70;10.10;;;5.00;99.90;;;;;;5038213;28;20223;-58
2022/11/19 03:44:23;;;;;;;16.70;10.37;;;4.90;99.90;;;;;;5032958;28;20216;-57
2022/11/19 03:46:56;;;;;;;17.13;10.33;;;4.90;99.90;;;;;;5042082;28;20206;-58
2022/11/19 03:49:30;;;;;;;14.73;9.80;;;4.90;99.90;;;;;;5040094;28;20240;-56
2022/11/19 03:52:12;;;;;;;14.80;9.43;;;5.00;99.90;;;;;;5041094;28;20562;-57
2022/11/19 03:54:40;;;;;;;15.60;10.77;;;4.90;99.90;;;;;;5044603;28;20206;-56
2022/11/19 03:57:10;;;;;;;15.70;9.90;;;4.80;99.90;;;;;;5042683;28;20221;-56
2022/11/19 03:59:37;;;;;;;14.83;10.27;;;4.90;99.90;;;;;;5040270;28;20272;-57
2022/11/19 04:02:07;;;;;;;18.53;11.37;;;4.90;99.90;;;;;;5041807;28;20241;-57
2022/11/19 04:04:35;;;;;;;17.30;11.37;;;4.90;99.90;;;;;;5042259;28;20233;-57
2022/11/19 04:07:23;;;;;;;20.00;11.73;;;4.70;99.90;;;;;;5039359;28;20597;-56
2022/11/19 04:09:50;;;;;;;15.27;10.33;;;4.80;99.90;;;;;;5036075;28;20214;-56
2022/11/19 04:12:22;;;;;;;17.20;10.63;;;4.80;99.90;;;;;;5041030;28;20203;-57
2022/11/19 04:14:49;;;;;;;16.33;11.00;;;4.70;99.90;;;;;;5044012;28;20600;-57
2022/11/19 04:17:17;;;;;;;18.30;10.50;;;4.60;99.90;;;;;;5041458;28;20320;-56
2022/11/19 04:19:44;;;;;;;17.67;11.73;;;4.70;99.90;;;;;;5040657;28;20206;-55
2022/11/19 04:22:11;;;;;;;19.33;11.73;;;4.60;99.90;;;;;;5041341;28;20248;-56
2022/11/19 04:24:38;;;;;;;17.87;11.17;;;4.60;99.90;;;;;;5041531;28;20288;-57
2022/11/19 04:27:04;;;;;;;21.30;12.37;;;4.40;99.90;;;;;;5040559;28;20202;-56
2022/11/19 04:29:31;;;;;;;19.07;12.33;;;4.40;99.90;;;;;;5038903;28;20274;-57
2022/11/19 04:31:58;;;;;;;18.57;11.70;;;4.60;99.90;;;;;;5039066;28;20629;-56
2022/11/19 04:34:25;;;;;;;18.47;12.07;;;4.60;99.90;;;;;;5043215;28;20203;-55
2022/11/19 04:36:51;;;;;;;19.30;11.27;;;4.70;99.90;;;;;;5040623;28;20197;-56
2022/11/19 04:39:18;;;;;;;18.87;12.57;;;4.60;99.90;;;;;;5039019;28;20253;-56
2022/11/19 04:41:46;;;;;;;17.90;11.83;;;4.50;99.90;;;;;;5041462;28;20782;-56
2022/11/19 04:44:13;;;;;;;18.97;12.63;;;4.60;99.90;;;;;;5037718;28;20249;-56
2022/11/19 04:46:39;;;;;;;20.73;12.03;;;4.60;99.90;;;;;;5043093;28;20223;-56
2022/11/19 04:49:06;;;;;;;17.47;11.40;;;4.60;99.90;;;;;;5041848;28;20211;-56
2022/11/19 04:51:33;;;;;;;21.27;12.67;;;4.50;99.90;;;;;;5042505;28;20881;-56
2022/11/19 04:54:00;;;;;;;18.07;11.77;;;4.40;99.90;;;;;;5037037;28;20194;-56
2022/11/19 04:56:27;;;;;;;18.90;12.37;;;4.50;99.90;;;;;;5040084;28;20671;-57
2022/11/19 04:58:53;;;;;;;21.53;13.17;;;4.50;99.90;;;;;;5041349;28;20305;-56
2022/11/19 05:01:20;;;;;;;21.33;12.97;;;4.40;99.90;;;;;;5041154;28;20240;-56
2022/11/19 05:03:47;;;;;;;21.20;12.90;;;4.40;99.90;;;;;;5041357;28;21156;-56
2022/11/19 05:06:14;;;;;;;20.30;12.97;;;4.40;99.90;;;;;;5041566;28;20198;-56
2022/11/19 05:08:41;;;;;;;23.03;13.83;;;4.40;99.90;;;;;;5038154;28;20193;-55
2022/11/19 05:11:08;;;;;;;19.20;12.37;;;4.30;99.90;;;;;;5031030;28;20229;-56
2022/11/19 05:13:35;;;;;;;19.83;13.23;;;4.50;99.90;;;;;;5042873;28;20252;-56
2022/11/19 05:16:02;;;;;;;22.50;13.50;;;4.40;99.90;;;;;;5041578;28;20622;-56
2022/11/19 05:18:29;;;;;;;20.10;12.70;;;4.40;99.90;;;;;;5041156;28;20224;-56
2022/11/19 05:20:56;;;;;;;21.80;13.63;;;4.40;99.90;;;;;;5040511;28;20315;-56
2022/11/19 05:23:23;;;;;;;21.40;14.43;;;4.30;99.90;;;;;;5039228;28;20209;-56
2022/11/19 05:25:50;;;;;;;22.10;14.37;;;4.30;99.90;;;;;;5041606;28;20208;-56
2022/11/19 05:28:17;;;;;;;20.30;12.40;;;4.20;99.90;;;;;;5040350;28;20246;-56
2022/11/19 05:30:43;;;;;;;21.23;13.20;;;4.20;99.90;;;;;;5039101;28;20333;-56
2022/11/19 05:33:10;;;;;;;18.77;13.27;;;4.20;99.90;;;;;;5035552;28;20681;-56
2022/11/19 05:35:37;;;;;;;21.20;13.53;;;4.30;99.90;;;;;;5038841;28;20208;-56
2022/11/19 05:38:04;;;;;;;21.87;14.07;;;4.20;99.90;;;;;;5039166;28;20199;-56
2022/11/19 05:40:30;;;;;;;19.63;13.43;;;4.20;99.90;;;;;;5041173;28;20219;-56
2022/11/19 05:43:05;;;;;;;22.30;13.77;;;4.10;99.90;;;;;;5035849;28;20603;-56
2022/11/19 05:45:33;;;;;;;22.97;14.77;;;4.20;99.90;;;;;;5037536;28;20229;-56
2022/11/19 05:48:00;;;;;;;24.20;14.03;;;4.20;99.90;;;;;;5032858;28;20713;-56
2022/11/19 05:50:26;;;;;;;24.63;14.83;;;4.20;99.90;;;;;;5036120;28;20588;-55
2022/11/19 05:52:53;;;;;;;21.83;14.03;;;4.10;99.90;;;;;;5047046;28;20240;-56
2022/11/19 05:55:20;;;;;;;21.57;14.23;;;4.10;99.90;;;;;;5034226;28;20193;-56
2022/11/19 05:57:47;;;;;;;25.17;14.80;;;4.00;99.90;;;;;;5033808;28;20215;-56
2022/11/19 06:00:18;;;;;;;21.83;15.03;;;4.20;99.90;;;;;;5036522;28;20866;-56
2022/11/19 06:02:44;;;;;;;23.97;14.23;;;4.00;99.90;;;;;;5033889;28;20555;-56
2022/11/19 06:05:11;;;;;;;25.57;15.33;;;3.90;99.90;;;;;;5033698;28;20188;-56
2022/11/19 06:07:38;;;;;;;23.17;14.67;;;4.00;99.90;;;;;;5049857;28;20827;-56
2022/11/19 06:10:05;;;;;;;23.53;15.43;;;4.00;99.90;;;;;;5036499;28;20222;-56
2022/11/19 06:12:32;;;;;;;25.83;15.97;;;4.10;99.90;;;;;;5020473;28;20286;-56
2022/11/19 06:15:00;;;;;;;23.33;15.57;;;4.10;99.90;;;;;;5017818;28;20542;-56
2022/11/19 06:17:28;;;;;;;24.10;14.73;;;4.20;99.90;;;;;;5035581;28;20234;-55
2022/11/19 06:19:55;;;;;;;23.67;14.97;;;4.10;99.90;;;;;;5035863;28;20208;-55
2022/11/19 06:22:22;;;;;;;23.50;14.93;;;4.00;99.90;;;;;;5039090;28;20222;-56
2022/11/19 06:24:48;;;;;;;25.37;15.17;;;3.90;99.90;;;;;;5039669;28;20258;-57
2022/11/19 06:27:15;;;;;;;26.83;16.97;;;3.90;99.90;;;;;;5054156;28;20238;-56
2022/11/19 06:29:42;;;;;;;25.80;15.53;;;4.00;99.90;;;;;;5021806;28;20200;-56
2022/11/19 06:32:09;;;;;;;24.70;15.13;;;4.00;99.90;;;;;;5042422;28;20246;-55
2022/11/19 06:34:36;;;;;;;26.33;16.13;;;4.00;99.90;;;;;;5040466;28;20209;-55
2022/11/19 06:37:02;;;;;;;26.80;16.40;;;4.00;99.90;;;;;;5051555;28;20235;-55
2022/11/19 06:39:29;;;;;;;23.17;15.33;;;4.00;99.90;;;;;;5037759;28;20240;-56
2022/11/19 06:42:34;;;;;;;25.13;15.23;;;3.90;99.90;;;;;;5041569;28;20211;-57
2022/11/19 06:44:43;;;;;;;24.80;15.47;;;3.80;99.90;;;;;;5039818;28;20693;-57
2022/11/19 06:47:09;;;;;;;27.17;15.87;;;3.90;99.90;;;;;;5041146;28;20214;-57
2022/11/19 06:49:36;;;;;;;24.67;15.53;;;3.70;99.90;;;;;;5039724;28;20691;-56
2022/11/19 06:52:03;;;;;;;26.17;16.23;;;3.70;99.90;;;;;;5041596;28;20197;-56
2022/11/19 06:54:30;;;;;;;29.07;17.53;;;3.80;99.90;;;;;;5041702;28;20690;-56
2022/11/19 06:56:58;;;;;;;23.20;15.33;;;3.60;99.90;;;;;;5040582;28;20208;-56
2022/11/19 06:59:24;;;;;;;29.27;17.63;;;3.70;99.90;;;;;;5038384;28;20564;-56
2022/11/19 07:01:51;;;;;;;24.23;16.00;;;3.60;99.90;;;;;;5030195;28;20219;-57
2022/11/19 07:04:18;;;;;;;25.80;16.47;;;3.60;99.90;;;;;;5038686;28;20211;-54
2022/11/19 07:06:45;;;;;;;23.63;16.30;;;3.70;99.90;;;;;;5031218;28;20200;-55
2022/11/19 07:09:12;;;;;;;24.77;15.40;;;3.70;99.90;;;;;;5034492;28;20209;-56
2022/11/19 07:11:38;;;;;;;25.10;15.53;;;3.70;99.90;;;;;;5038575;28;20295;-55
2022/11/19 07:14:06;;;;;;;27.43;16.00;;;3.60;99.90;;;;;;5038710;28;20327;-56
2022/11/19 07:16:34;;;;;;;27.03;16.63;;;3.50;99.90;;;;;;5037809;28;20619;-55
2022/11/19 07:19:04;;;;;;;28.10;16.57;;;3.70;99.90;;;;;;5038298;28;20245;-55
2022/11/19 07:21:31;;;;;;;25.80;15.83;;;3.70;99.90;;;;;;5034833;28;20221;-55
2022/11/19 07:24:00;;;;;;;29.23;16.60;;;3.70;99.90;;;;;;5035311;28;20207;-55
2022/11/19 07:26:27;;;;;;;24.40;15.90;;;3.60;99.90;;;;;;5034658;28;20192;-57
2022/11/19 07:28:54;;;;;;;27.13;16.03;;;3.80;99.90;;;;;;5034019;28;20218;-56
2022/11/19 07:31:20;;;;;;;25.93;16.40;;;3.60;99.90;;;;;;5031237;28;20693;-55
2022/11/19 07:33:47;;;;;;;27.00;16.70;;;3.70;99.90;;;;;;5033062;28;20204;-56
2022/11/19 07:36:14;;;;;;;27.30;16.73;;;3.60;99.90;;;;;;5032054;28;20315;-57
2022/11/19 07:38:45;;;;;;;26.57;17.67;;;3.60;99.90;;;;;;5031349;28;20206;-57
2022/11/19 07:43:57;;;;;;;27.93;16.87;;;3.70;99.90;;;;;;4676504;28;10000133;-55
2022/11/19 07:46:24;;;;;;;28.73;16.30;;;3.60;99.90;;;;;;5040663;28;20685;-55
2022/11/19 07:48:56;;;;;;;29.80;16.83;;;3.50;99.90;;;;;;5030513;28;20192;-55
2022/11/19 07:51:23;;;;;;;29.67;17.40;;;3.70;99.90;;;;;;5028392;28;20301;-54
2022/11/19 07:53:51;;;;;;;27.43;16.53;;;3.70;99.90;;;;;;5028163;28;20268;-55
2022/11/19 07:56:18;;;;;;;26.33;16.70;;;3.60;99.90;;;;;;5025522;28;20577;-56
2022/11/19 07:58:46;;;;;;;27.43;16.97;;;3.50;99.90;;;;;;5028658;28;20224;-61
2022/11/19 08:01:18;;;;;;;25.80;16.03;;;3.50;99.90;;;;;;5025323;28;20238;-59
2022/11/19 08:03:47;;;;;;;27.77;16.40;;;3.50;99.90;;;;;;5027965;28;20195;-56
2022/11/19 08:06:23;;;;;;;27.37;16.57;;;3.50;99.90;;;;;;5030604;28;20203;-56
2022/11/19 08:08:49;;;;;;;23.60;14.80;;;3.40;99.90;;;;;;5026503;28;20208;-56
2022/11/19 08:11:17;;;;;;;28.63;17.40;;;3.50;99.90;;;;;;5032866;28;21137;-56
2022/11/19 08:13:44;;;;;;;30.17;16.07;;;3.60;99.90;;;;;;5031683;28;20262;-56
2022/11/19 08:18:10;;;;;;;28.40;16.43;;;3.50;99.90;;;;;;5048375;28;20621;-56
2022/11/19 08:19:11;;;;;;;29.87;16.47;;;3.50;99.90;;;;;;5031820;28;20217;-56
2022/11/19 08:21:43;;;;;;;25.93;16.37;;;3.60;99.90;;;;;;5033148;28;20707;-58
2022/11/19 08:24:11;;;;;;;26.80;17.03;;;3.70;99.90;;;;;;5032317;28;20235;-58
2022/11/19 08:26:39;;;;;;;27.17;16.07;;;3.70;99.90;;;;;;5028697;28;21018;-57
2022/11/19 08:29:07;;;;;;;29.13;16.73;;;3.80;99.90;;;;;;5029342;28;20314;-57
2022/11/19 08:31:43;;;;;;;25.83;15.03;;;3.80;99.90;;;;;;5033633;28;20209;-56
2022/11/19 08:34:09;;;;;;;27.73;16.87;;;3.80;99.90;;;;;;5033522;28;20217;-57
2022/11/19 08:36:36;;;;;;;24.60;14.33;;;3.70;99.90;;;;;;5039755;28;20207;-55
2022/11/19 08:39:03;;;;;;;26.37;15.87;;;3.60;99.90;;;;;;5034076;28;20857;-56
2022/11/19 08:44:16;;;;;;;24.57;14.60;;;3.80;99.90;;;;;;5031617;28;20257;-56
2022/11/19 08:46:43;;;;;;;24.40;13.90;;;3.80;99.90;;;;;;5028133;28;20291;-56
2022/11/19 08:49:11;;;;;;;28.97;15.97;;;3.80;99.90;;;;;;5030377;28;20278;-56
2022/11/19 08:51:38;;;;;;;24.33;14.80;;;3.90;99.90;;;;;;5032567;28;20714;-57
2022/11/19 08:54:05;;;;;;;22.83;14.73;;;3.70;99.90;;;;;;5035252;28;20314;-57
2022/11/19 08:56:32;;;;;;;28.80;16.10;;;3.80;99.90;;;;;;5029819;28;20215;-56
2022/11/19 08:58:59;;;;;;;25.63;15.30;;;3.90;99.90;;;;;;5027838;28;20306;-56
2022/11/19 09:01:29;;;;;;;25.20;15.10;;;3.90;99.90;;;;;;5023332;28;20324;-56
2022/11/19 09:03:56;;;;;;;24.87;14.20;;;3.80;99.90;;;;;;5029112;28;20212;-56
2022/11/19 09:06:23;;;;;;;22.83;15.27;;;3.80;99.90;;;;;;5026607;28;20194;-56
2022/11/19 09:08:50;;;;;;;23.87;13.93;;;3.70;99.90;;;;;;5034322;28;20207;-57
2022/11/19 09:11:19;;;;;;;25.53;15.37;;;3.70;99.90;;;;;;5036596;28;20246;-57
2022/11/19 09:13:46;;;;;;;20.70;12.03;;;3.50;99.90;;;;;;5039007;28;20284;-57
2022/11/19 09:16:13;;;;;;;23.77;14.50;;;3.60;99.90;;;;;;5037237;28;20292;-57
2022/11/19 09:18:41;;;;;;;23.60;14.63;;;3.50;99.90;;;;;;5038692;28;20197;-56
2022/11/19 09:21:10;;;;;;;25.90;15.03;;;3.70;99.90;;;;;;5037379;28;20212;-57
2022/11/19 09:23:38;;;;;;;23.47;14.97;;;3.70;99.90;;;;;;5037463;28;20671;-57
2022/11/19 09:26:16;;;;;;;26.57;15.10;;;3.60;99.90;;;;;;5038612;28;20607;-59
2022/11/19 09:28:43;;;;;;;24.87;14.90;;;3.70;99.90;;;;;;5019410;28;20199;-56
2022/11/19 09:31:16;;;;;;;23.53;14.93;;;3.60;99.90;;;;;;5036856;28;20268;-57
2022/11/19 09:33:48;;;;;;;26.50;15.00;;;3.50;99.90;;;;;;5036578;28;20296;-57
2022/11/19 09:36:17;;;;;;;23.47;15.13;;;3.50;99.90;;;;;;5039758;28;20288;-57
2022/11/19 09:38:45;;;;;;;25.57;14.60;;;3.50;99.90;;;;;;5034205;28;20640;-57
2022/11/19 09:41:42;;;;;;;23.00;13.70;;;3.60;99.90;;;;;;5022268;28;20234;-57
2022/11/19 09:44:23;;;;;;;22.87;14.67;;;3.60;99.90;;;;;;5028273;28;20691;-58
2022/11/19 09:46:50;;;;;;;21.03;13.53;;;3.70;99.90;;;;;;4995851;28;20208;-55
2022/11/19 09:49:41;;;;;;;21.23;13.83;;;3.70;99.90;;;;;;5015575;28;21156;-55
2022/11/19 09:52:18;;;;;;;24.63;14.23;;;3.70;99.90;;;;;;5002100;28;20207;-57
2022/11/19 09:54:52;;;;;;;23.20;14.17;;;3.70;99.90;;;;;;5014896;28;20211;-55
2022/11/19 09:57:41;;;;;;;25.30;14.23;;;3.80;99.90;;;;;;4997459;28;20757;-56
2022/11/19 10:00:08;;;;;;;28.33;14.60;;;3.80;99.90;;;;;;5036223;28;20237;-56
2022/11/19 10:02:35;;;;;;;29.07;15.60;;;3.80;99.90;;;;;;5035655;28;20221;-57
2022/11/19 10:05:02;;;;;;;22.17;12.97;;;3.70;99.90;;;;;;5039378;28;20248;-57
2022/11/19 10:07:47;;;;;;;22.03;13.00;;;3.60;99.90;;;;;;5037938;28;20204;-57
2022/11/19 10:10:26;;;;;;;23.37;13.47;;;3.50;99.90;;;;;;5037666;28;20224;-58
2022/11/19 10:13:11;;;;;;;24.37;13.27;;;3.50;99.90;;;;;;5016502;28;20204;-60
2022/11/19 10:16:11;;;;;;;22.83;14.10;;;3.40;99.90;;;;;;5033204;28;21012;-60
2022/11/19 10:18:56;;;;;;;21.60;13.03;;;3.50;99.90;;;;;;5032918;28;20234;-57
2022/11/19 10:21:36;;;;;;;21.07;12.87;;;3.40;99.90;;;;;;5037184;28;20289;-56
2022/11/19 10:24:16;;;;;;;23.03;13.80;;;3.50;99.90;;;;;;5036704;28;20678;-65
2022/11/19 10:27:08;;;;;;;22.80;12.50;;;3.50;99.90;;;;;;5039717;28;20206;-60
2022/11/19 10:29:39;;;;;;;21.23;13.07;;;3.60;99.90;;;;;;5034016;28;20803;-56
2022/11/19 10:32:24;;;;;;;21.60;13.00;;;3.70;99.90;;;;;;5036157;28;20215;-56
2022/11/19 10:34:58;;;;;;;21.63;14.17;;;3.40;99.90;;;;;;5034931;28;20214;-56
2022/11/19 10:37:32;;;;;;;19.53;13.30;;;3.20;99.90;;;;;;5036789;28;20355;-56
2022/11/19 10:40:12;;;;;;;20.63;12.60;;;3.40;99.90;;;;;;5051197;28;20197;-55
2022/11/19 10:42:53;;;;;;;21.30;13.40;;;3.30;99.90;;;;;;5050865;28;20713;-57
2022/11/19 10:45:30;;;;;;;24.23;12.93;;;3.30;99.90;;;;;;5036252;28;20211;-56
2022/11/19 10:48:32;;;;;;;19.07;12.80;;;3.30;99.90;;;;;;5037468;28;20189;-56
2022/11/19 10:50:59;;;;;;;20.13;11.87;;;3.40;99.90;;;;;;5002436;28;20295;-57
2022/11/19 10:53:35;;;;;;;17.57;12.03;;;3.40;99.90;;;;;;5053841;28;20211;-57
2022/11/19 10:56:38;;;;;;;19.57;12.57;;;3.30;99.90;;;;;;5037142;28;20299;-56
2022/11/19 10:59:23;;;;;;;20.07;12.37;;;3.10;99.90;;;;;;5034030;28;20215;-56
2022/11/19 11:01:56;;;;;;;19.37;12.17;;;3.10;99.90;;;;;;5034364;28;20312;-55
2022/11/19 11:04:26;;;;;;;18.57;11.87;;;3.10;99.90;;;;;;5036616;28;20618;-56
2022/11/19 11:07:03;;;;;;;19.20;11.97;;;3.10;99.90;;;;;;5032807;28;20250;-55
2022/11/19 11:09:41;;;;;;;19.57;11.13;;;3.00;99.90;;;;;;5034163;28;20204;-57
2022/11/19 11:15:17;;;;;;;20.07;11.43;;;3.20;99.90;;;;;;5034550;28;20242;-55
2022/11/19 11:17:45;;;;;;;17.43;9.97;;;3.00;99.90;;;;;;5019255;28;20232;-56
2022/11/19 11:20:20;;;;;;;19.73;12.03;;;3.20;99.90;;;;;;5036927;28;20262;-54
2022/11/19 11:23:07;;;;;;;18.60;11.47;;;3.30;99.90;;;;;;5036013;28;20212;-56
2022/11/19 11:25:37;;;;;;;17.67;11.10;;;3.20;99.90;;;;;;5035802;28;20292;-56
2022/11/19 11:28:11;;;;;;;19.00;11.13;;;3.10;99.90;;;;;;5016889;28;20218;-57
2022/11/19 11:30:49;;;;;;;15.87;9.60;;;3.20;99.90;;;;;;5016125;28;20229;-58
2022/11/19 11:33:28;;;;;;;16.30;9.97;;;3.20;99.90;;;;;;5035548;28;20315;-56
2022/11/19 11:35:59;;;;;;;17.70;10.33;;;3.00;99.90;;;;;;5036735;28;20219;-56
2022/11/19 11:38:26;;;;;;;15.43;10.17;;;3.20;99.90;;;;;;5034748;28;20204;-56
2022/11/19 11:41:12;;;;;;;16.27;9.73;;;3.20;99.90;;;;;;5018860;28;20497;-57
2022/11/19 11:44:04;;;;;;;17.07;10.20;;;3.00;99.90;;;;;;5036021;28;20224;-56
2022/11/19 11:46:42;;;;;;;17.10;10.30;;;3.00;99.90;;;;;;5032561;28;20219;-55
2022/11/19 11:49:34;;;;;;;14.77;9.47;;;3.00;99.90;;;;;;5033757;28;20231;-55
2022/11/19 11:52:14;;;;;;;14.53;9.47;;;3.20;99.90;;;;;;5027963;28;20219;-56
2022/11/19 11:55:01;;;;;;;15.83;10.07;;;3.20;99.90;;;;;;5035242;28;20286;-57
2022/11/19 11:57:31;;;;;;;14.87;10.33;;;3.20;99.90;;;;;;5034545;28;20335;-56
2022/11/19 12:00:00;;;;;;;18.27;11.27;;;3.30;99.90;;;;;;5037421;28;20707;-55
2022/11/19 12:02:29;;;;;;;15.37;9.87;;;3.10;99.90;;;;;;5037824;28;20903;-55
2022/11/19 12:05:03;;;;;;;15.63;9.90;;;3.40;99.90;;;;;;5035706;28;20202;-56
2022/11/19 12:08:06;;;;;;;13.47;8.53;;;3.40;99.90;;;;;;5039852;28;20227;-56
2022/11/19 12:10:50;;;;;;;14.60;9.70;;;3.40;99.90;;;;;;5054298;28;20263;-56
2022/11/19 12:13:29;;;;;;;14.10;9.30;;;3.50;99.90;;;;;;5038898;28;20199;-56
2022/11/19 12:16:14;;;;;;;16.93;10.00;;;3.50;99.90;;;;;;5038265;28;20206;-56
2022/11/19 12:19:01;;;;;;;14.40;9.50;;;3.50;99.90;;;;;;5039138;28;20316;-55
2022/11/19 12:21:35;;;;;;;14.80;9.47;;;3.20;99.90;;;;;;5040289;28;20286;-57
2022/11/19 12:24:31;;;;;;;14.37;9.50;;;3.10;99.90;;;;;;5037643;28;20230;-57
2022/11/19 12:27:07;;;;;;;14.90;9.80;;;3.20;99.90;;;;;;5021716;28;20288;-57
2022/11/19 12:30:01;;;;;;;13.63;8.90;;;3.30;99.90;;;;;;5038800;28;20192;-57
2022/11/19 12:32:41;;;;;;;18.90;9.97;;;3.40;99.90;;;;;;5041364;28;20208;-56
2022/11/19 12:35:36;;;;;;;14.67;9.60;;;3.30;99.90;;;;;;5037275;28;20292;-56
2022/11/19 12:38:05;;;;;;;16.37;10.23;;;3.40;99.90;;;;;;5036878;28;20209;-56
2022/11/19 12:40:37;;;;;;;14.90;9.83;;;3.40;99.90;;;;;;5037569;28;20300;-57
2022/11/19 12:43:49;;;;;;;14.93;9.73;;;3.30;99.90;;;;;;5037469;28;20269;-56
2022/11/19 12:46:22;;;;;;;14.70;9.60;;;3.50;99.90;;;;;;5002826;28;20286;-57
2022/11/19 12:49:19;;;;;;;14.17;9.10;;;3.60;99.90;;;;;;5035366;28;20206;-58
2022/11/19 12:52:22;;;;;;;20.67;9.27;;;3.60;99.90;;;;;;5039263;28;20241;-57
2022/11/19 12:55:01;;;;;;;14.77;9.63;;;3.50;99.90;;;;;;5039516;28;20212;-57
2022/11/19 12:57:46;;;;;;;14.00;9.10;;;3.60;99.90;;;;;;5039067;28;20210;-57
2022/11/19 13:00:17;;;;;;;12.57;8.57;;;3.50;99.90;;;;;;5037782;28;20241;-57
2022/11/19 13:03:07;;;;;;;17.20;9.07;;;3.50;99.90;;;;;;5041320;28;20209;-56
2022/11/19 13:05:43;;;;;;;14.00;8.03;;;3.50;99.90;;;;;;5030782;28;20230;-55
2022/11/19 13:08:17;;;;;;;15.00;8.97;;;3.60;99.90;;;;;;5038635;28;20295;-57
2022/11/19 13:10:49;;;;;;;13.77;8.33;;;3.50;99.90;;;;;;5038194;28;20912;-56
2022/11/19 13:13:21;;;;;;;12.50;9.00;;;3.50;99.90;;;;;;5039338;28;20336;-63
2022/11/19 13:16:02;;;;;;;14.53;8.60;;;3.50;99.90;;;;;;5026851;28;20643;-57
2022/11/19 13:18:33;;;;;;;12.07;8.20;;;3.50;99.90;;;;;;5038053;28;20283;-57
2022/11/19 13:21:06;;;;;;;14.07;8.37;;;3.50;99.90;;;;;;5038937;28;20231;-57
2022/11/19 13:23:38;;;;;;;13.77;8.43;;;3.60;99.90;;;;;;5038024;28;20323;-57
2022/11/19 13:26:09;;;;;;;12.37;8.57;;;3.70;99.90;;;;;;5021446;28;20288;-57
2022/11/19 13:28:54;;;;;;;13.60;9.00;;;3.70;99.90;;;;;;5037785;28;20285;-56
2022/11/19 13:31:42;;;;;;;13.30;8.57;;;3.80;99.90;;;;;;5034916;28;20194;-57